createdAt,value
2018-12-02T00:02:09.760Z,5.00
2018-12-02T00:04:39.462Z,5.00
2018-12-02T00:07:09.425Z,5.00
2018-12-02T00:09:39.572Z,5.10
2018-12-02T00:12:09.724Z,5.20
2018-12-02T00:14:39.680Z,5.00
2018-12-02T00:17:09.612Z,5.10
2018-12-02T00:19:40.863Z,5.00
2018-12-02T00:22:10.114Z,5.10
2018-12-02T00:24:39.839Z,5.10
2018-12-02T00:27:09.784Z,5.20
2018-12-02T00:29:39.840Z,5.40
2018-12-02T00:32:09.828Z,5.50
2018-12-02T00:34:39.804Z,5.60
2018-12-02T00:37:09.993Z,5.60
2018-12-02T00:39:41.171Z,5.60
2018-12-02T00:42:10.376Z,5.50
2018-12-02T00:44:40.101Z,5.70
2018-12-02T00:47:10.096Z,5.60
2018-12-02T00:49:40.097Z,5.50
2018-12-02T00:52:10.172Z,5.50
2018-12-02T00:54:40.140Z,5.40
2018-12-02T00:57:10.111Z,5.20
2018-12-02T00:59:40.205Z,5.10
2018-12-02T01:02:10.853Z,5.20
2018-12-02T01:04:41.844Z,5.10
2018-12-02T01:07:11.049Z,4.90
2018-12-02T01:09:40.333Z,4.90
2018-12-02T01:12:11.638Z,4.90
2018-12-02T01:14:40.855Z,4.90
2018-12-02T01:17:10.413Z,5.00
2018-12-02T01:19:40.451Z,5.10
2018-12-02T01:22:10.300Z,5.10
2018-12-02T01:24:40.496Z,5.10
2018-12-02T01:27:10.448Z,5.00
2018-12-02T01:29:40.428Z,5.00
2018-12-02T01:32:10.738Z,5.00
2018-12-02T01:34:40.604Z,5.10
2018-12-02T01:37:10.624Z,4.90
2018-12-02T01:39:40.669Z,5.00
2018-12-02T01:42:10.684Z,4.80
2018-12-02T01:44:40.683Z,4.90
2018-12-02T01:47:10.821Z,5.00
2018-12-02T01:49:42.023Z,4.90
2018-12-02T01:52:11.157Z,5.00
2018-12-02T01:54:40.844Z,5.10
2018-12-02T01:57:10.836Z,5.00
2018-12-02T01:59:41.072Z,5.10
2018-12-02T02:02:11.053Z,5.00
2018-12-02T02:04:41.036Z,5.00
2018-12-02T02:07:11.025Z,4.90
2018-12-02T02:09:41.044Z,5.00
2018-12-02T02:12:11.152Z,5.10
2018-12-02T02:14:41.009Z,5.00
2018-12-02T02:17:11.128Z,5.00
2018-12-02T02:19:41.128Z,4.80
2018-12-02T02:22:12.230Z,4.70
2018-12-02T02:24:41.420Z,4.80
2018-12-02T02:27:11.144Z,4.90
2018-12-02T02:29:41.348Z,4.90
2018-12-02T02:32:11.337Z,4.90
2018-12-02T02:34:42.155Z,4.90
2018-12-02T02:37:11.424Z,5.00
2018-12-02T02:39:41.395Z,5.00
2018-12-02T02:42:11.353Z,5.00
2018-12-02T02:44:41.452Z,4.90
2018-12-02T02:47:11.497Z,4.80
2018-12-02T02:49:41.497Z,4.90
2018-12-02T02:52:11.473Z,5.00
2018-12-02T02:54:41.484Z,5.20
2018-12-02T02:57:11.492Z,5.20
2018-12-02T02:59:41.488Z,5.10
2018-12-02T03:02:11.601Z,5.20
2018-12-02T03:04:41.627Z,5.20
2018-12-02T03:07:12.917Z,5.20
2018-12-02T03:09:42.032Z,5.20
2018-12-02T03:12:11.700Z,5.20
2018-12-02T03:14:41.681Z,5.20
2018-12-02T03:17:11.684Z,5.10
2018-12-02T03:19:41.832Z,4.90
2018-12-02T03:22:11.790Z,4.80
2018-12-02T03:24:41.808Z,4.90
2018-12-02T03:27:11.862Z,4.80
2018-12-02T03:29:41.920Z,4.90
2018-12-02T03:32:13.693Z,4.80
2018-12-02T03:34:42.885Z,4.90
2018-12-02T03:37:12.245Z,4.90
2018-12-02T03:39:42.077Z,4.90
2018-12-02T03:42:12.092Z,5.00
2018-12-02T03:44:42.192Z,5.30
2018-12-02T03:47:20.625Z,5.50
2018-12-02T03:49:49.789Z,5.30
2018-12-02T03:52:19.364Z,5.30
2018-12-02T03:54:48.501Z,5.20
2018-12-02T03:57:17.595Z,5.50
2018-12-02T03:59:46.748Z,5.60
2018-12-02T04:02:15.916Z,5.30
2018-12-02T04:04:45.136Z,5.20
2018-12-02T04:07:14.245Z,5.50
2018-12-02T04:09:43.402Z,5.60
2018-12-02T04:12:12.585Z,5.60
2018-12-02T04:14:42.537Z,5.60
2018-12-02T04:17:12.613Z,5.50
2018-12-02T04:19:42.498Z,5.60
2018-12-02T04:22:12.628Z,5.60
2018-12-02T04:24:42.700Z,5.50
2018-12-02T04:27:12.808Z,5.50
2018-12-02T04:29:42.793Z,5.50
2018-12-02T04:32:12.727Z,5.30
2018-12-02T04:34:42.769Z,5.40
2018-12-02T04:37:12.789Z,5.40
2018-12-02T04:39:42.858Z,5.30
2018-12-02T04:42:12.841Z,5.70
2018-12-02T04:44:42.773Z,5.70
2018-12-02T04:47:12.932Z,5.60
2018-12-02T04:49:43.088Z,5.60
2018-12-02T04:52:13.077Z,5.70
2018-12-02T04:54:44.188Z,5.60
2018-12-02T04:57:13.387Z,5.60
2018-12-02T04:59:43.131Z,5.50
2018-12-02T05:02:13.125Z,5.60
2018-12-02T05:04:43.150Z,5.70
2018-12-02T05:07:13.124Z,5.60
2018-12-02T05:09:43.346Z,5.30
2018-12-02T05:12:13.279Z,5.50
2018-12-02T05:14:43.235Z,5.80
2018-12-02T05:17:13.201Z,5.90
2018-12-02T05:19:43.391Z,5.50
2018-12-02T05:22:13.256Z,5.40
2018-12-02T05:24:43.257Z,5.30
2018-12-02T05:27:13.247Z,5.60
2018-12-02T05:29:43.340Z,5.50
2018-12-02T05:32:13.329Z,5.60
2018-12-02T05:34:43.439Z,5.80
2018-12-02T05:37:13.439Z,5.50
2018-12-02T05:39:44.244Z,5.40
2018-12-02T05:42:18.464Z,5.60
2018-12-02T05:44:47.666Z,5.80
2018-12-02T05:47:16.853Z,5.90
2018-12-02T05:49:46.058Z,5.70
2018-12-02T05:52:15.284Z,5.60
2018-12-02T05:54:44.453Z,5.70
2018-12-02T05:57:13.617Z,5.60
2018-12-02T05:59:43.545Z,5.80
2018-12-02T06:02:13.560Z,5.70
2018-12-02T06:04:43.556Z,5.70
2018-12-02T06:07:13.576Z,5.70
2018-12-02T06:09:43.625Z,5.50
2018-12-02T06:12:13.484Z,5.40
2018-12-02T06:14:43.677Z,5.60
2018-12-02T06:17:13.576Z,5.60
2018-12-02T06:19:43.648Z,5.40
2018-12-02T06:22:13.732Z,5.50
2018-12-02T06:24:43.667Z,5.80
2018-12-02T06:27:13.636Z,5.80
2018-12-02T06:29:43.645Z,6.00
2018-12-02T06:32:13.761Z,6.00
2018-12-02T06:34:43.595Z,6.10
2018-12-02T06:37:13.664Z,6.00
2018-12-02T06:39:43.700Z,6.20
2018-12-02T06:42:13.811Z,6.00
2018-12-02T06:44:43.789Z,6.10
2018-12-02T06:47:13.824Z,6.00
2018-12-02T06:49:44.765Z,5.80
2018-12-02T06:52:14.013Z,5.90
2018-12-02T06:54:43.760Z,6.00
2018-12-02T06:57:13.980Z,5.90
2018-12-02T06:59:49.609Z,6.00
2018-12-02T07:03:32.836Z,6.00
2018-12-02T07:06:02.053Z,6.00
2018-12-02T07:08:31.199Z,6.00
2018-12-02T07:11:01.698Z,6.10
2018-12-02T07:13:30.808Z,6.10
2018-12-02T07:16:00.918Z,6.00
2018-12-02T07:18:32.449Z,5.90
2018-12-02T07:21:01.792Z,5.90
2018-12-02T07:23:30.964Z,6.10
2018-12-02T07:26:00.229Z,6.20
2018-12-02T07:28:29.357Z,6.20
2018-12-02T07:30:58.548Z,6.30
2018-12-02T07:33:27.729Z,7.20
2018-12-02T07:35:56.900Z,7.90
2018-12-02T07:38:41.574Z,8.10
2018-12-02T07:41:11.355Z,8.10
2018-12-02T07:43:40.481Z,8.00
2018-12-02T07:46:09.666Z,7.40
2018-12-02T07:48:38.736Z,7.00
2018-12-02T07:51:07.926Z,6.70
2018-12-02T07:53:37.046Z,6.60
2018-12-02T07:56:06.498Z,6.30
2018-12-02T07:58:35.648Z,6.10
2018-12-02T08:01:04.843Z,6.40
2018-12-02T08:03:33.991Z,6.50
2018-12-02T08:06:03.208Z,6.40
2018-12-02T08:08:32.455Z,6.20
2018-12-02T08:11:01.556Z,6.30
2018-12-02T08:13:30.677Z,6.40
2018-12-02T08:15:59.863Z,6.40
2018-12-02T08:18:28.988Z,6.40
2018-12-02T08:20:58.186Z,6.30
2018-12-02T08:23:27.524Z,6.30
2018-12-02T08:25:56.721Z,6.40
2018-12-02T08:28:25.940Z,6.30
2018-12-02T08:30:55.173Z,6.40
2018-12-02T08:33:24.468Z,6.30
2018-12-02T08:35:53.666Z,6.30
2018-12-02T08:38:22.880Z,6.30
2018-12-02T08:40:52.302Z,6.20
2018-12-02T08:43:21.476Z,6.20
2018-12-02T08:45:50.624Z,6.30
2018-12-02T08:48:19.726Z,6.30
2018-12-02T08:50:48.851Z,6.20
2018-12-02T08:53:18.028Z,6.30
2018-12-02T08:55:47.264Z,6.30
2018-12-02T08:58:16.440Z,6.30
2018-12-02T09:00:46.474Z,6.40
2018-12-02T09:03:15.831Z,6.40
2018-12-02T09:05:45.947Z,6.40
2018-12-02T09:08:15.928Z,6.30
2018-12-02T09:10:46.407Z,6.40
2018-12-02T09:13:15.871Z,6.40
2018-12-02T09:15:46.015Z,6.60
2018-12-02T09:18:15.967Z,6.50
2018-12-02T09:20:46.113Z,6.50
2018-12-02T09:23:16.052Z,6.40
2018-12-02T09:25:45.928Z,6.40
2018-12-02T09:28:16.070Z,6.40
2018-12-02T09:30:46.036Z,6.20
2018-12-02T09:33:17.245Z,6.40
2018-12-02T09:35:46.448Z,6.30
2018-12-02T09:38:16.171Z,6.60
2018-12-02T09:40:46.248Z,6.40
2018-12-02T09:43:16.410Z,6.50
2018-12-02T09:45:46.145Z,6.60
2018-12-02T09:48:16.239Z,6.70
2018-12-02T09:50:46.264Z,6.60
2018-12-02T09:53:17.225Z,6.40
2018-12-02T09:55:48.219Z,6.50
2018-12-02T09:58:25.180Z,6.70
2018-12-02T10:00:56.053Z,6.80
2018-12-02T10:03:25.242Z,6.60
2018-12-02T10:05:54.401Z,6.50
2018-12-02T10:08:23.484Z,6.50
2018-12-02T10:10:52.868Z,6.60
2018-12-02T10:13:23.742Z,6.60
2018-12-02T10:15:52.962Z,6.50
2018-12-02T10:18:22.111Z,6.60
2018-12-02T10:20:51.312Z,6.70
2018-12-02T10:23:20.441Z,6.80
2018-12-02T10:25:49.639Z,6.90
2018-12-02T10:28:18.756Z,6.80
2018-12-02T10:30:47.864Z,6.80
2018-12-02T10:33:17.100Z,6.90
2018-12-02T10:35:46.147Z,7.00
2018-12-02T10:38:15.280Z,6.90
2018-12-02T10:40:44.428Z,6.90
2018-12-02T10:43:13.548Z,7.10
2018-12-02T10:45:42.964Z,7.10
2018-12-02T10:48:13.331Z,7.20
2018-12-02T10:50:43.033Z,7.20
2018-12-02T10:53:21.293Z,7.30
2018-12-02T10:55:56.140Z,7.30
2018-12-02T10:58:27.127Z,7.20
2018-12-02T11:01:04.227Z,7.40
2018-12-02T11:03:33.574Z,7.50
2018-12-02T11:06:02.984Z,7.50
2018-12-02T11:08:32.191Z,7.50
2018-12-02T11:11:01.324Z,7.60
2018-12-02T11:13:31.822Z,7.60
2018-12-02T11:16:01.029Z,7.60
2018-12-02T11:18:30.199Z,7.70
2018-12-02T11:20:59.387Z,7.70
2018-12-02T11:23:28.418Z,7.60
2018-12-02T11:25:57.633Z,7.80
2018-12-02T11:28:27.421Z,7.80
2018-12-02T11:30:56.536Z,7.80
2018-12-02T11:33:25.722Z,7.90
2018-12-02T11:35:54.913Z,7.90
2018-12-02T11:38:24.047Z,7.80
2018-12-02T11:40:53.410Z,8.40
2018-12-02T11:43:22.557Z,8.90
2018-12-02T11:45:51.714Z,8.20
2018-12-02T11:48:20.924Z,8.20
2018-12-02T11:50:50.802Z,8.00
2018-12-02T11:53:19.816Z,7.90
2018-12-02T11:55:48.936Z,7.90
2018-12-02T11:58:18.005Z,7.80
2018-12-02T12:00:47.292Z,7.90
2018-12-02T12:03:16.405Z,7.90
2018-12-02T12:05:47.689Z,7.80
2018-12-02T12:08:16.767Z,7.90
2018-12-02T12:10:45.896Z,7.80
2018-12-02T12:13:15.500Z,7.80
2018-12-02T12:15:44.735Z,7.90
2018-12-02T12:18:14.537Z,7.80
2018-12-02T12:20:44.713Z,7.90
2018-12-02T12:23:19.151Z,8.00
2018-12-02T12:25:48.323Z,8.00
2018-12-02T12:28:17.424Z,8.00
2018-12-02T12:30:46.582Z,8.00
2018-12-02T12:33:15.712Z,8.10
2018-12-02T12:35:48.679Z,8.10
2018-12-02T12:38:17.877Z,8.10
2018-12-02T12:40:49.601Z,8.10
2018-12-02T12:43:25.924Z,8.00
2018-12-02T12:45:55.147Z,8.10
2018-12-02T12:48:24.407Z,8.00
2018-12-02T12:50:53.554Z,8.00
2018-12-02T12:53:22.687Z,8.10
2018-12-02T12:55:51.873Z,8.20
2018-12-02T12:58:21.147Z,8.10
2018-12-02T13:00:51.674Z,8.10
2018-12-02T13:03:20.910Z,8.10
2018-12-02T13:05:50.160Z,8.10
2018-12-02T13:08:19.327Z,8.40
2018-12-02T13:10:48.499Z,8.50
2018-12-02T13:13:17.588Z,8.50
2018-12-02T13:15:46.764Z,8.60
2018-12-02T13:18:15.849Z,8.70
2018-12-02T13:20:50.074Z,8.70
2018-12-02T13:23:19.204Z,9.00
2018-12-02T13:25:50.283Z,8.80
2018-12-02T13:28:19.487Z,8.80
2018-12-02T13:30:48.808Z,8.90
2018-12-02T13:33:18.051Z,9.00
2018-12-02T13:35:47.303Z,9.00
2018-12-02T13:38:16.364Z,8.90
2018-12-02T13:40:45.638Z,8.90
2018-12-02T13:43:20.592Z,9.10
2018-12-02T13:45:50.744Z,9.40
2018-12-02T13:48:20.049Z,9.50
2018-12-02T13:50:49.258Z,9.70
2018-12-02T13:53:18.488Z,9.90
2018-12-02T13:55:47.716Z,10.00
2018-12-02T13:58:16.880Z,10.10
2018-12-02T14:00:46.009Z,10.20
2018-12-02T14:03:15.857Z,10.10
2018-12-02T14:05:48.100Z,10.10
2018-12-02T14:08:17.304Z,10.30
2018-12-02T14:10:46.668Z,10.40
2018-12-02T14:13:23.872Z,10.40
2018-12-02T14:17:06.070Z,10.50
2018-12-02T14:19:35.383Z,10.50
2018-12-02T14:22:04.479Z,10.60
2018-12-02T14:24:33.664Z,10.80
2018-12-02T14:27:02.924Z,10.80
2018-12-02T14:29:36.173Z,10.90
2018-12-02T14:32:12.185Z,10.90
2018-12-02T14:34:41.418Z,11.00
2018-12-02T14:37:10.627Z,10.80
2018-12-02T14:39:39.756Z,10.90
2018-12-02T14:42:08.924Z,10.90
2018-12-02T14:44:38.067Z,10.90
2018-12-02T14:47:07.399Z,10.90
2018-12-02T14:49:36.661Z,10.90
2018-12-02T14:52:06.465Z,11.00
2018-12-02T14:54:37.875Z,11.20
2018-12-02T14:57:07.038Z,11.20
2018-12-02T14:59:36.264Z,11.10
2018-12-02T15:02:05.744Z,11.30
2018-12-02T15:04:34.972Z,11.40
2018-12-02T15:07:04.088Z,11.50
2018-12-02T15:09:33.417Z,11.10
2018-12-02T15:12:02.575Z,11.20
2018-12-02T15:14:31.802Z,11.30
2018-12-02T15:17:00.980Z,11.10
2018-12-02T15:19:31.465Z,11.10
2018-12-02T15:22:00.677Z,11.30
2018-12-02T15:24:29.756Z,11.30
2018-12-02T15:27:00.168Z,11.40
2018-12-02T15:29:30.041Z,11.40
2018-12-02T15:31:59.085Z,11.30
2018-12-02T15:34:28.284Z,11.20
2018-12-02T15:36:57.423Z,11.30
2018-12-02T15:39:26.625Z,11.30
2018-12-02T15:41:55.848Z,11.40
2018-12-02T15:44:24.957Z,11.40
2018-12-02T15:46:54.137Z,11.40
2018-12-02T15:49:23.330Z,11.30
2018-12-02T15:51:52.496Z,11.30
2018-12-02T15:54:21.748Z,11.30
2018-12-02T15:56:50.960Z,11.50
2018-12-02T15:59:20.129Z,11.50
2018-12-02T16:01:49.299Z,11.50
2018-12-02T16:04:18.441Z,11.50
2018-12-02T16:06:47.633Z,11.50
2018-12-02T16:09:17.852Z,11.50
2018-12-02T16:11:47.004Z,11.50
2018-12-02T16:14:17.937Z,11.40
2018-12-02T16:16:47.144Z,11.40
2018-12-02T16:19:17.906Z,11.40
2018-12-02T16:21:47.116Z,11.30
2018-12-02T16:24:17.936Z,11.20
2018-12-02T16:26:47.179Z,11.10
2018-12-02T16:29:18.045Z,11.30
2018-12-02T16:31:47.297Z,11.30
2018-12-02T16:34:16.954Z,11.30
2018-12-02T16:36:46.980Z,11.40
2018-12-02T16:39:17.023Z,11.40
2018-12-02T16:41:50.648Z,11.40
2018-12-02T16:44:19.865Z,11.40
2018-12-02T16:46:49.092Z,11.40
2018-12-02T16:49:19.095Z,11.40
2018-12-02T16:51:48.205Z,11.50
2018-12-02T16:54:17.312Z,11.40
2018-12-02T16:56:47.445Z,11.40
2018-12-02T16:59:24.944Z,11.40
2018-12-02T17:01:57.805Z,11.50
2018-12-02T17:04:27.020Z,11.40
2018-12-02T17:06:56.206Z,11.40
2018-12-02T17:09:25.404Z,11.50
2018-12-02T17:11:54.520Z,11.50
2018-12-02T17:14:23.715Z,11.50
2018-12-02T17:16:52.937Z,11.60
2018-12-02T17:19:22.056Z,11.40
2018-12-02T17:21:51.220Z,11.60
2018-12-02T17:24:20.401Z,11.50
2018-12-02T17:26:49.680Z,11.40
2018-12-02T17:29:20.671Z,11.50
2018-12-02T17:32:00.529Z,11.50
2018-12-02T17:34:29.731Z,11.50
2018-12-02T17:36:58.859Z,11.40
2018-12-02T17:39:30.771Z,11.30
2018-12-02T17:42:02.928Z,11.50
2018-12-02T17:44:32.124Z,11.50
2018-12-02T17:47:01.311Z,11.50
2018-12-02T17:49:30.532Z,11.50
2018-12-02T17:51:59.751Z,11.40
2018-12-02T17:54:28.900Z,11.50
2018-12-02T17:56:58.014Z,11.40
2018-12-02T17:59:27.325Z,11.40
2018-12-02T18:01:56.435Z,11.40
2018-12-02T18:04:25.572Z,11.30
2018-12-02T18:06:54.828Z,11.40
2018-12-02T18:09:24.014Z,11.20
2018-12-02T18:11:53.179Z,11.20
2018-12-02T18:14:22.336Z,11.20
2018-12-02T18:16:51.552Z,11.20
2018-12-02T18:19:20.758Z,11.10
2018-12-02T18:21:49.908Z,11.20
2018-12-02T18:24:19.151Z,11.10
2018-12-02T18:26:48.332Z,11.10
2018-12-02T18:29:18.928Z,11.10
2018-12-02T18:31:48.064Z,11.10
2018-12-02T18:34:19.260Z,11.20
2018-12-02T18:36:48.617Z,11.20
2018-12-02T18:39:19.248Z,11.20
2018-12-02T18:41:51.724Z,11.30
2018-12-02T18:44:20.909Z,11.20
2018-12-02T18:46:50.305Z,11.30
2018-12-02T18:49:19.366Z,11.50
2018-12-02T18:51:48.512Z,11.50
2018-12-02T18:54:19.014Z,11.40
2018-12-02T18:56:48.267Z,11.30
2018-12-02T18:59:20.684Z,11.30
2018-12-02T19:01:49.896Z,11.40
2018-12-02T19:04:19.215Z,11.40
2018-12-02T19:06:48.349Z,11.30
2018-12-02T19:09:18.088Z,11.40
2018-12-02T19:11:48.376Z,11.50
2018-12-02T19:14:17.812Z,11.40
2018-12-02T19:16:48.129Z,11.50
2018-12-02T19:19:17.959Z,11.30
2018-12-02T19:21:48.260Z,11.50
2018-12-02T19:24:18.078Z,11.50
2018-12-02T19:26:48.272Z,11.60
2018-12-02T19:29:18.076Z,11.50
2018-12-02T19:31:48.393Z,11.50
2018-12-02T19:34:17.924Z,11.70
2018-12-02T19:36:59.589Z,11.70
2018-12-02T19:39:28.792Z,11.50
2018-12-02T19:41:57.964Z,11.70
2018-12-02T19:44:27.089Z,11.50
2018-12-02T19:46:56.182Z,11.60
2018-12-02T19:49:25.365Z,11.80
2018-12-02T19:51:54.592Z,11.80
2018-12-02T19:54:23.816Z,11.80
2018-12-02T19:56:52.981Z,11.70
2018-12-02T19:59:22.167Z,11.90
2018-12-02T20:01:51.408Z,11.90
2018-12-02T20:04:20.540Z,12.00
2018-12-02T20:06:49.784Z,11.90
2018-12-02T20:09:19.901Z,11.90
2018-12-02T20:11:49.076Z,11.90
2018-12-02T20:14:18.254Z,12.00
2018-12-02T20:16:47.475Z,11.80
2018-12-02T20:19:23.073Z,11.90
2018-12-02T20:21:52.279Z,12.00
2018-12-02T20:24:26.680Z,11.90
2018-12-02T20:26:55.839Z,12.10
2018-12-02T20:29:25.004Z,11.90
2018-12-02T20:31:54.196Z,12.00
2018-12-02T20:34:23.417Z,12.00
2018-12-02T20:36:52.580Z,12.10
2018-12-02T20:39:21.754Z,12.00
2018-12-02T20:41:50.972Z,12.00
2018-12-02T20:44:20.158Z,12.20
2018-12-02T20:46:49.328Z,12.00
2018-12-02T20:49:19.193Z,12.00
2018-12-02T20:51:49.167Z,12.10
2018-12-02T20:54:19.127Z,12.00
2018-12-02T20:56:49.276Z,12.00
2018-12-02T20:59:19.243Z,12.00
2018-12-02T21:01:49.189Z,11.90
2018-12-02T21:04:20.256Z,11.90
2018-12-02T21:06:49.428Z,12.00
2018-12-02T21:09:19.373Z,12.00
2018-12-02T21:11:49.300Z,12.00
2018-12-02T21:14:19.439Z,11.90
2018-12-02T21:16:49.358Z,11.80
2018-12-02T21:19:19.498Z,11.80
2018-12-02T21:21:49.456Z,11.60
2018-12-02T21:29:15.572Z,11.60
2018-12-02T21:31:44.727Z,11.50
2018-12-02T21:34:13.872Z,11.50
2018-12-02T21:36:43.038Z,11.50
2018-12-02T21:39:12.247Z,11.40
2018-12-02T21:41:41.495Z,11.40
2018-12-02T21:44:10.689Z,11.30
2018-12-02T21:46:39.850Z,11.30
2018-12-02T21:49:09.042Z,11.30
2018-12-02T21:51:38.200Z,11.30
2018-12-02T21:54:07.590Z,11.40
2018-12-02T21:56:36.732Z,11.30
2018-12-02T21:59:06.096Z,11.30
2018-12-02T22:01:35.200Z,11.20
2018-12-02T22:04:04.364Z,11.30
2018-12-02T22:06:33.593Z,11.20
2018-12-02T22:09:02.814Z,11.10
2018-12-02T22:11:32.019Z,11.00
2018-12-02T22:14:01.207Z,11.00
2018-12-02T22:16:30.437Z,10.90
2018-12-02T22:18:59.674Z,10.80
2018-12-02T22:21:28.754Z,10.90
2018-12-02T22:24:01.236Z,10.90
2018-12-02T22:26:27.169Z,11.10
2018-12-02T22:28:57.427Z,10.90
2018-12-02T22:31:25.511Z,11.00
2018-12-02T22:33:54.875Z,10.90
2018-12-02T22:36:24.005Z,10.80
2018-12-02T22:38:53.336Z,10.90
2018-12-02T22:41:22.549Z,10.80
2018-12-02T22:43:51.668Z,10.70
2018-12-02T22:46:20.892Z,10.80
2018-12-02T22:48:50.256Z,10.80
2018-12-02T22:51:20.284Z,10.80
2018-12-02T22:53:50.412Z,10.80
2018-12-02T22:56:21.268Z,11.00
2018-12-02T22:58:50.554Z,10.80
2018-12-02T23:01:26.323Z,10.70
2018-12-02T23:03:54.996Z,10.70
2018-12-02T23:06:24.163Z,10.60
2018-12-02T23:08:53.482Z,10.50
2018-12-02T23:11:22.632Z,10.60
2018-12-02T23:13:51.763Z,10.70
2018-12-02T23:16:20.832Z,10.60
2018-12-02T23:18:50.536Z,10.70
2018-12-02T23:21:21.504Z,10.70
2018-12-02T23:23:50.696Z,10.80
2018-12-02T23:26:20.574Z,10.80
2018-12-02T23:28:52.059Z,10.80
2018-12-02T23:31:21.160Z,10.80
2018-12-02T23:33:51.046Z,10.80
2018-12-02T23:36:20.661Z,10.80
2018-12-02T23:38:50.716Z,10.70
2018-12-02T23:41:20.699Z,10.70
2018-12-02T23:43:50.712Z,10.70
2018-12-02T23:46:20.656Z,10.60
2018-12-02T23:48:50.708Z,10.60
2018-12-02T23:51:20.816Z,10.60
2018-12-02T23:53:50.828Z,10.60
2018-12-02T23:56:20.853Z,10.60
2018-12-02T23:58:50.896Z,10.60
